createdAt,value
2023-01-08T00:02:11.901Z,7.80
2023-01-08T00:04:41.368Z,7.80
2023-01-08T00:07:08.593Z,7.80
2023-01-08T00:09:35.793Z,7.80
2023-01-08T00:12:03.267Z,7.80
2023-01-08T00:14:30.838Z,7.80
2023-01-08T00:16:58.204Z,7.90
2023-01-08T00:19:25.245Z,8.00
2023-01-08T00:21:52.450Z,8.00
2023-01-08T00:24:19.505Z,7.90
2023-01-08T00:26:46.600Z,7.80
2023-01-08T00:29:13.641Z,7.70
2023-01-08T00:31:40.888Z,7.70
2023-01-08T00:34:08.016Z,7.70
2023-01-08T00:36:34.984Z,7.70
2023-01-08T00:39:05.279Z,7.70
2023-01-08T00:41:33.966Z,7.70
2023-01-08T00:44:01.127Z,7.70
2023-01-08T00:46:28.607Z,7.60
2023-01-08T00:48:56.077Z,7.60
2023-01-08T00:51:23.091Z,7.60
2023-01-08T00:53:50.145Z,7.70
2023-01-08T00:56:19.653Z,7.60
2023-01-08T00:58:46.847Z,7.60
2023-01-08T01:01:14.677Z,7.60
2023-01-08T01:03:41.899Z,7.50
2023-01-08T01:06:09.988Z,7.50
2023-01-08T01:08:37.276Z,7.40
2023-01-08T01:11:15.470Z,7.30
2023-01-08T01:13:46.283Z,7.30
2023-01-08T01:16:13.690Z,7.30
2023-01-08T01:18:40.903Z,7.20
2023-01-08T01:21:11.845Z,7.20
2023-01-08T01:23:42.244Z,7.10
2023-01-08T01:26:18.864Z,7.10
2023-01-08T01:28:49.764Z,7.10
2023-01-08T01:31:16.952Z,7.20
2023-01-08T01:33:44.193Z,7.10
2023-01-08T01:36:14.704Z,7.10
2023-01-08T01:38:45.574Z,7.10
2023-01-08T01:41:18.914Z,7.10
2023-01-08T01:43:46.092Z,7.10
2023-01-08T01:46:32.492Z,7.00
2023-01-08T01:49:00.347Z,6.90
2023-01-08T01:51:29.630Z,6.90
2023-01-08T01:53:56.790Z,6.90
2023-01-08T01:56:24.376Z,6.90
2023-01-08T01:58:52.757Z,7.00
2023-01-08T02:01:19.980Z,7.10
2023-01-08T02:03:47.276Z,7.10
2023-01-08T02:06:27.090Z,7.10
2023-01-08T02:09:03.486Z,7.10
2023-01-08T02:11:34.414Z,7.00
2023-01-08T02:14:21.221Z,7.00
2023-01-08T02:16:51.050Z,7.00
2023-01-08T02:19:38.237Z,7.00
2023-01-08T02:22:35.377Z,6.80
2023-01-08T02:25:05.306Z,6.80
2023-01-08T02:27:32.457Z,6.80
2023-01-08T02:29:59.894Z,6.70
2023-01-08T02:32:33.121Z,6.70
2023-01-08T02:35:00.329Z,6.70
2023-01-08T02:37:27.505Z,6.70
2023-01-08T02:39:54.651Z,6.70
2023-01-08T02:42:27.348Z,6.70
2023-01-08T02:44:55.928Z,6.70
2023-01-08T02:47:25.825Z,6.50
2023-01-08T02:49:55.224Z,6.50
2023-01-08T02:52:22.311Z,6.40
2023-01-08T02:54:49.322Z,6.40
2023-01-08T02:57:16.464Z,6.40
2023-01-08T02:59:43.823Z,6.40
2023-01-08T03:02:11.361Z,6.50
2023-01-08T03:04:40.453Z,6.60
2023-01-08T03:07:07.762Z,6.60
2023-01-08T03:09:34.869Z,6.50
2023-01-08T03:12:06.339Z,6.40
2023-01-08T03:15:06.199Z,6.20
2023-01-08T03:17:33.708Z,6.30
2023-01-08T03:20:01.986Z,6.30
2023-01-08T03:22:29.139Z,6.30
2023-01-08T03:24:56.287Z,6.20
2023-01-08T03:27:24.762Z,6.20
2023-01-08T03:29:52.425Z,6.20
2023-01-08T03:32:19.475Z,6.20
2023-01-08T03:34:47.243Z,6.20
2023-01-08T03:37:14.734Z,6.30
2023-01-08T03:39:45.648Z,6.30
2023-01-08T03:42:12.984Z,6.40
2023-01-08T03:44:40.044Z,6.40
2023-01-08T03:47:07.169Z,6.50
2023-01-08T03:49:34.339Z,6.50
2023-01-08T03:52:01.369Z,6.50
2023-01-08T03:54:32.640Z,6.50
2023-01-08T03:56:59.776Z,6.50
2023-01-08T03:59:26.915Z,6.50
2023-01-08T04:01:54.172Z,6.50
2023-01-08T04:04:21.515Z,6.50
2023-01-08T04:06:48.568Z,6.50
2023-01-08T04:09:15.532Z,6.50
2023-01-08T04:11:42.458Z,6.50
2023-01-08T04:14:09.529Z,6.50
2023-01-08T04:16:36.555Z,6.50
2023-01-08T04:19:03.705Z,6.40
2023-01-08T04:21:30.860Z,6.40
2023-01-08T04:23:58.035Z,6.30
2023-01-08T04:26:25.148Z,6.30
2023-01-08T04:28:52.198Z,6.40
2023-01-08T04:31:19.523Z,6.40
2023-01-08T04:33:46.617Z,6.40
2023-01-08T04:36:13.623Z,6.40
2023-01-08T04:38:40.611Z,6.40
2023-01-08T04:41:07.571Z,6.30
2023-01-08T04:43:34.520Z,6.20
2023-01-08T04:46:01.895Z,6.20
2023-01-08T04:48:29.103Z,6.20
2023-01-08T04:50:57.984Z,6.20
2023-01-08T04:53:25.137Z,6.10
2023-01-08T04:55:52.080Z,6.10
2023-01-08T04:58:19.121Z,6.00
2023-01-08T05:00:46.197Z,6.10
2023-01-08T05:03:13.267Z,6.10
2023-01-08T05:05:40.295Z,6.20
2023-01-08T05:08:07.318Z,6.20
2023-01-08T05:10:34.397Z,6.20
2023-01-08T05:13:01.626Z,6.20
2023-01-08T05:15:28.762Z,6.10
2023-01-08T05:18:02.701Z,6.10
2023-01-08T05:20:29.741Z,6.10
2023-01-08T05:22:58.708Z,6.00
2023-01-08T05:25:25.857Z,6.00
2023-01-08T05:27:53.326Z,5.90
2023-01-08T05:30:20.562Z,5.90
2023-01-08T05:32:47.618Z,6.00
2023-01-08T05:35:14.864Z,6.00
2023-01-08T05:37:41.924Z,6.00
2023-01-08T05:40:09.077Z,6.00
2023-01-08T05:42:36.335Z,5.90
2023-01-08T05:45:06.910Z,6.00
2023-01-08T05:47:34.117Z,6.00
2023-01-08T05:50:01.245Z,6.00
2023-01-08T05:52:30.845Z,6.00
2023-01-08T05:55:00.373Z,5.90
2023-01-08T05:57:30.390Z,5.80
2023-01-08T05:59:57.480Z,5.80
2023-01-08T06:02:24.732Z,5.80
2023-01-08T06:04:51.835Z,5.80
2023-01-08T06:07:18.983Z,5.80
2023-01-08T06:09:46.037Z,5.80
2023-01-08T06:12:13.390Z,5.90
2023-01-08T06:14:40.452Z,5.90
2023-01-08T06:17:07.491Z,5.90
2023-01-08T06:19:34.465Z,5.80
2023-01-08T06:22:01.650Z,5.70
2023-01-08T06:24:28.613Z,5.70
2023-01-08T06:26:55.894Z,5.70
2023-01-08T06:29:22.943Z,5.70
2023-01-08T06:31:50.093Z,5.70
2023-01-08T06:34:17.448Z,5.70
2023-01-08T06:36:44.587Z,5.70
2023-01-08T06:39:11.624Z,5.50
2023-01-08T06:41:38.888Z,5.50
2023-01-08T06:44:06.260Z,5.40
2023-01-08T06:46:38.423Z,5.40
2023-01-08T06:49:05.555Z,5.50
2023-01-08T06:51:32.918Z,5.60
2023-01-08T06:54:00.030Z,5.70
2023-01-08T06:56:27.138Z,5.70
2023-01-08T06:58:54.374Z,5.80
2023-01-08T07:01:23.220Z,6.00
2023-01-08T07:03:50.494Z,6.10
2023-01-08T07:06:22.331Z,6.10
2023-01-08T07:08:49.413Z,6.20
2023-01-08T07:11:17.301Z,6.20
2023-01-08T07:13:44.196Z,6.20
2023-01-08T07:16:12.253Z,6.20
2023-01-08T07:18:39.548Z,6.30
2023-01-08T07:21:07.224Z,6.40
2023-01-08T07:23:34.437Z,6.50
2023-01-08T07:26:01.935Z,6.90
2023-01-08T07:28:29.255Z,7.70
2023-01-08T07:30:56.481Z,8.60
2023-01-08T07:33:23.582Z,9.70
2023-01-08T07:36:00.071Z,10.70
2023-01-08T07:38:27.292Z,11.60
2023-01-08T07:40:54.421Z,12.60
2023-01-08T07:43:21.430Z,13.40
2023-01-08T07:45:48.641Z,13.90
2023-01-08T07:48:17.503Z,14.20
2023-01-08T07:50:44.711Z,14.60
2023-01-08T07:53:12.428Z,15.00
2023-01-08T07:55:39.620Z,15.50
2023-01-08T07:58:10.398Z,15.90
2023-01-08T08:00:37.760Z,16.40
2023-01-08T08:03:05.801Z,16.80
2023-01-08T08:05:33.016Z,17.20
2023-01-08T08:08:00.141Z,17.50
2023-01-08T08:10:27.383Z,18.00
2023-01-08T08:12:54.645Z,18.50
2023-01-08T08:15:21.704Z,19.00
2023-01-08T08:17:49.312Z,19.40
2023-01-08T08:20:19.236Z,19.80
2023-01-08T08:22:47.655Z,20.40
2023-01-08T08:25:15.637Z,21.00
2023-01-08T08:27:43.313Z,21.60
2023-01-08T08:30:10.974Z,22.00
2023-01-08T08:32:40.861Z,22.40
2023-01-08T08:35:17.097Z,22.60
2023-01-08T08:37:47.088Z,23.00
2023-01-08T08:42:59.151Z,23.40
2023-01-08T08:45:26.415Z,23.90
2023-01-08T08:47:55.123Z,24.50
2023-01-08T08:50:22.274Z,24.70
2023-01-08T08:52:52.354Z,25.10
2023-01-08T08:55:22.385Z,25.60
2023-01-08T08:57:50.653Z,25.80
2023-01-08T09:00:20.573Z,26.10
2023-01-08T09:02:50.004Z,26.50
2023-01-08T09:05:17.199Z,26.90
2023-01-08T09:07:44.384Z,27.40
2023-01-08T09:10:11.834Z,27.70
2023-01-08T09:12:42.200Z,27.80
2023-01-08T09:15:09.418Z,28.20
2023-01-08T09:17:37.189Z,28.50
2023-01-08T09:20:05.345Z,28.90
2023-01-08T09:22:34.845Z,29.40
2023-01-08T09:25:02.124Z,29.80
2023-01-08T09:27:29.265Z,30.10
2023-01-08T09:29:56.556Z,30.20
2023-01-08T09:32:23.879Z,30.40
2023-01-08T09:34:51.051Z,30.80
2023-01-08T09:37:20.499Z,31.10
2023-01-08T09:39:57.700Z,31.40
2023-01-08T09:42:30.071Z,31.80
2023-01-08T09:44:57.496Z,32.20
2023-01-08T09:47:28.162Z,32.60
2023-01-08T09:50:05.746Z,33.10
2023-01-08T09:52:33.005Z,33.50
2023-01-08T09:55:00.783Z,33.70
2023-01-08T09:57:27.819Z,34.10
2023-01-08T09:59:54.950Z,34.30
2023-01-08T10:02:22.877Z,34.50
2023-01-08T10:04:54.469Z,34.90
2023-01-08T10:07:22.350Z,35.10
2023-01-08T10:09:52.467Z,35.30
2023-01-08T10:12:25.482Z,35.30
2023-01-08T10:14:55.778Z,35.30
2023-01-08T10:17:27.544Z,35.50
2023-01-08T10:19:54.739Z,35.60
2023-01-08T10:22:23.456Z,35.40
2023-01-08T10:24:50.551Z,35.30
2023-01-08T10:27:34.076Z,35.20
2023-01-08T10:30:07.880Z,35.20
2023-01-08T10:32:34.870Z,35.30
2023-01-08T10:35:35.219Z,35.30
2023-01-08T10:40:38.609Z,35.90
2023-01-08T10:43:09.546Z,36.30
2023-01-08T10:45:40.881Z,36.60
2023-01-08T10:48:08.464Z,36.80
2023-01-08T10:50:46.747Z,37.00
2023-01-08T10:53:26.971Z,37.20
2023-01-08T10:56:02.943Z,37.60
2023-01-08T10:58:45.026Z,37.80
2023-01-08T11:01:13.506Z,37.90
2023-01-08T11:03:40.731Z,38.10
2023-01-08T11:06:14.574Z,38.40
2023-01-08T11:08:49.096Z,38.50
2023-01-08T11:11:17.362Z,38.50
2023-01-08T11:14:00.649Z,38.80
2023-01-08T11:16:34.641Z,39.00
2023-01-08T11:19:01.638Z,39.10
2023-01-08T11:21:31.721Z,38.30
2023-01-08T11:24:14.265Z,35.70
2023-01-08T11:26:42.613Z,33.10
2023-01-08T11:29:16.948Z,30.80
2023-01-08T11:31:45.618Z,29.30
2023-01-08T11:34:15.884Z,28.00
2023-01-08T11:37:03.051Z,27.10
2023-01-08T11:39:30.067Z,26.30
2023-01-08T11:42:15.653Z,25.70
2023-01-08T11:44:46.424Z,25.30
2023-01-08T11:47:21.989Z,24.80
2023-01-08T11:50:09.258Z,24.40
2023-01-08T11:52:45.487Z,23.90
2023-01-08T11:55:29.710Z,23.60
2023-01-08T11:58:02.698Z,23.40
2023-01-08T12:00:29.668Z,23.20
2023-01-08T12:02:58.304Z,23.00
2023-01-08T12:05:52.250Z,22.90
2023-01-08T12:08:45.188Z,22.70
2023-01-08T12:11:28.533Z,22.50
2023-01-08T12:13:58.392Z,22.50
2023-01-08T12:16:38.245Z,22.50
2023-01-08T12:19:05.668Z,22.50
2023-01-08T12:21:44.823Z,23.90
2023-01-08T12:24:16.512Z,25.90
2023-01-08T12:26:46.559Z,28.10
2023-01-08T12:29:16.980Z,29.30
2023-01-08T12:32:02.020Z,30.20
2023-01-08T12:34:41.222Z,31.30
2023-01-08T12:37:28.328Z,32.50
2023-01-08T12:39:57.214Z,33.40
2023-01-08T12:42:25.858Z,33.80
2023-01-08T12:44:53.388Z,34.10
2023-01-08T12:47:22.329Z,34.40
2023-01-08T12:50:24.863Z,34.60
2023-01-08T12:53:00.654Z,34.90
2023-01-08T12:55:27.812Z,35.10
2023-01-08T12:58:00.254Z,35.40
2023-01-08T13:00:29.672Z,35.70
2023-01-08T13:02:57.920Z,35.90
2023-01-08T13:05:24.835Z,36.30
2023-01-08T13:07:52.958Z,36.70
2023-01-08T13:10:25.871Z,36.80
2023-01-08T13:12:53.901Z,36.90
2023-01-08T13:15:21.951Z,37.00
2023-01-08T13:17:49.707Z,37.20
2023-01-08T13:20:29.422Z,37.20
2023-01-08T13:23:05.239Z,36.80
2023-01-08T13:25:38.508Z,36.20
2023-01-08T13:28:24.257Z,35.90
2023-01-08T13:30:52.320Z,35.50
2023-01-08T13:33:26.844Z,34.70
2023-01-08T13:36:14.096Z,34.30
2023-01-08T13:38:41.285Z,33.60
2023-01-08T13:41:34.214Z,32.20
2023-01-08T13:44:05.533Z,31.20
2023-01-08T13:46:33.151Z,30.00
2023-01-08T13:49:00.347Z,29.10
2023-01-08T13:51:44.057Z,28.50
2023-01-08T13:54:17.243Z,27.60
2023-01-08T13:56:45.732Z,27.10
2023-01-08T13:59:22.494Z,27.30
2023-01-08T14:01:56.090Z,27.80
2023-01-08T14:04:23.758Z,28.40
2023-01-08T14:06:51.731Z,28.30
2023-01-08T14:09:20.944Z,27.70
2023-01-08T14:11:48.073Z,26.60
2023-01-08T14:14:19.321Z,26.00
2023-01-08T14:16:49.900Z,25.70
2023-01-08T14:19:20.799Z,25.30
2023-01-08T14:21:51.880Z,24.90
2023-01-08T14:24:19.340Z,24.50
2023-01-08T14:26:51.573Z,24.10
2023-01-08T14:29:20.467Z,23.70
2023-01-08T14:31:53.812Z,23.30
2023-01-08T14:34:30.746Z,23.10
2023-01-08T14:36:59.901Z,22.90
2023-01-08T14:39:54.496Z,22.60
2023-01-08T14:42:45.208Z,22.20
2023-01-08T14:45:23.760Z,21.60
2023-01-08T14:47:52.788Z,21.10
2023-01-08T14:50:28.423Z,20.60
2023-01-08T14:53:07.360Z,20.40
2023-01-08T14:55:35.999Z,20.20
2023-01-08T14:58:23.529Z,20.00
2023-01-08T15:00:55.127Z,20.00
2023-01-08T15:03:28.369Z,20.00
2023-01-08T15:05:56.663Z,20.10
2023-01-08T15:08:30.235Z,20.10
2023-01-08T15:11:01.486Z,20.20
2023-01-08T15:13:33.323Z,20.10
2023-01-08T15:16:33.059Z,20.00
2023-01-08T15:19:09.720Z,20.10
2023-01-08T15:21:38.409Z,20.20
2023-01-08T15:24:06.145Z,20.20
2023-01-08T15:26:33.456Z,20.20
2023-01-08T15:29:02.271Z,20.20
2023-01-08T15:31:32.814Z,20.20
2023-01-08T15:34:00.595Z,20.00
2023-01-08T15:36:27.737Z,19.90
2023-01-08T15:38:58.771Z,19.80
2023-01-08T15:41:44.545Z,19.70
2023-01-08T15:44:13.218Z,19.60
2023-01-08T15:46:44.143Z,19.50
2023-01-08T15:49:12.791Z,19.30
2023-01-08T15:51:46.727Z,19.20
2023-01-08T15:54:15.264Z,19.20
2023-01-08T15:56:43.050Z,19.10
2023-01-08T15:59:10.451Z,18.90
2023-01-08T16:01:41.787Z,18.60
2023-01-08T16:04:09.028Z,18.40
2023-01-08T16:06:36.630Z,18.40
2023-01-08T16:09:04.349Z,18.20
2023-01-08T16:11:32.004Z,18.10
2023-01-08T16:13:59.651Z,18.00
2023-01-08T16:16:26.917Z,17.90
2023-01-08T16:18:55.692Z,17.70
2023-01-08T16:21:24.992Z,17.70
2023-01-08T16:24:02.747Z,17.60
2023-01-08T16:26:32.366Z,17.60
2023-01-08T16:28:59.603Z,17.60
2023-01-08T16:31:26.803Z,17.40
2023-01-08T16:33:53.877Z,17.30
2023-01-08T16:36:21.233Z,17.20
2023-01-08T16:38:49.087Z,17.20
2023-01-08T16:41:16.261Z,17.20
2023-01-08T16:43:45.500Z,17.20
2023-01-08T16:46:15.476Z,17.10
2023-01-08T16:48:42.938Z,17.00
2023-01-08T16:51:10.252Z,17.00
2023-01-08T16:53:37.548Z,16.90
2023-01-08T16:56:04.759Z,16.80
2023-01-08T16:58:32.437Z,16.70
2023-01-08T17:01:04.052Z,16.70
2023-01-08T17:03:34.759Z,16.60
2023-01-08T17:06:08.300Z,16.60
2023-01-08T17:08:42.209Z,16.50
2023-01-08T17:11:10.201Z,16.40
2023-01-08T17:13:37.345Z,16.30
2023-01-08T17:16:05.370Z,16.20
2023-01-08T17:18:34.674Z,16.10
2023-01-08T17:21:07.168Z,16.00
2023-01-08T17:23:34.486Z,15.90
2023-01-08T17:26:04.760Z,15.80
2023-01-08T17:28:34.659Z,15.80
2023-01-08T17:31:05.289Z,15.80
2023-01-08T17:33:32.992Z,15.60
2023-01-08T17:36:02.354Z,15.50
2023-01-08T17:38:30.982Z,15.50
2023-01-08T17:41:00.356Z,15.50
2023-01-08T17:43:27.389Z,15.40
2023-01-08T17:45:56.397Z,15.30
2023-01-08T17:48:23.775Z,15.30
2023-01-08T17:50:50.836Z,15.30
2023-01-08T17:53:17.948Z,15.20
2023-01-08T17:55:45.004Z,15.20
2023-01-08T17:58:12.100Z,15.20
2023-01-08T18:00:39.259Z,15.10
2023-01-08T18:03:08.820Z,15.00
2023-01-08T18:05:35.969Z,14.80
2023-01-08T18:08:03.231Z,14.70
2023-01-08T18:10:30.368Z,14.70
2023-01-08T18:12:57.396Z,14.70
2023-01-08T18:15:24.659Z,14.60
2023-01-08T18:17:53.117Z,14.50
2023-01-08T18:20:20.277Z,14.50
2023-01-08T18:22:48.264Z,14.50
2023-01-08T18:25:15.333Z,14.40
2023-01-08T18:27:42.433Z,14.20
2023-01-08T18:30:10.144Z,14.20
2023-01-08T18:32:37.256Z,14.20
2023-01-08T18:35:04.711Z,14.20
2023-01-08T18:37:34.741Z,14.10
2023-01-08T18:40:02.122Z,14.00
2023-01-08T18:42:30.481Z,14.00
2023-01-08T18:45:00.199Z,13.90
2023-01-08T18:47:27.952Z,13.90
2023-01-08T18:49:55.316Z,13.90
2023-01-08T18:52:22.569Z,13.80
2023-01-08T18:54:49.779Z,13.80
2023-01-08T18:57:16.848Z,13.70
2023-01-08T18:59:43.962Z,13.60
2023-01-08T19:02:17.750Z,13.50
2023-01-08T19:04:44.886Z,13.40
2023-01-08T19:07:11.970Z,13.30
2023-01-08T19:09:39.461Z,13.20
2023-01-08T19:12:07.079Z,13.20
2023-01-08T19:14:34.280Z,13.10
2023-01-08T19:17:04.213Z,13.10
2023-01-08T19:19:31.246Z,13.00
2023-01-08T19:21:59.530Z,13.00
2023-01-08T19:24:26.612Z,12.90
2023-01-08T19:26:55.669Z,12.90
2023-01-08T19:29:23.156Z,12.90
2023-01-08T19:31:50.423Z,12.80
2023-01-08T19:34:17.723Z,12.80
2023-01-08T19:36:45.061Z,12.60
2023-01-08T19:39:12.147Z,12.50
2023-01-08T19:41:57.743Z,12.40
2023-01-08T19:44:24.827Z,12.30
2023-01-08T19:46:51.939Z,12.20
2023-01-08T19:49:18.930Z,12.00
2023-01-08T19:51:45.918Z,12.00
2023-01-08T19:54:13.092Z,11.90
2023-01-08T19:56:40.134Z,11.90
2023-01-08T19:59:09.701Z,12.00
2023-01-08T20:01:37.881Z,12.00
2023-01-08T20:04:05.333Z,11.90
2023-01-08T20:06:32.472Z,11.80
2023-01-08T20:08:59.751Z,11.90
2023-01-08T20:11:27.128Z,11.90
2023-01-08T20:13:55.964Z,11.70
2023-01-08T20:16:23.401Z,11.60
2023-01-08T20:18:50.525Z,11.50
2023-01-08T20:21:18.626Z,11.50
2023-01-08T20:23:45.624Z,11.50
2023-01-08T20:26:14.772Z,11.60
2023-01-08T20:28:42.073Z,11.50
2023-01-08T20:31:16.014Z,11.50
2023-01-08T20:33:43.389Z,11.50
2023-01-08T20:36:11.216Z,11.50
2023-01-08T20:38:40.836Z,11.50
2023-01-08T20:41:07.779Z,11.60
2023-01-08T20:43:35.424Z,11.60
2023-01-08T20:46:02.690Z,11.70
2023-01-08T20:48:37.045Z,11.70
2023-01-08T20:51:10.417Z,11.60
2023-01-08T20:53:39.741Z,11.50
2023-01-08T20:56:08.095Z,11.50
2023-01-08T20:58:35.691Z,11.30
2023-01-08T21:01:10.272Z,11.20
2023-01-08T21:03:37.558Z,11.10
2023-01-08T21:06:10.565Z,11.10
2023-01-08T21:08:37.849Z,11.10
2023-01-08T21:11:07.933Z,11.20
2023-01-08T21:13:35.668Z,11.20
2023-01-08T21:16:03.877Z,11.20
2023-01-08T21:18:31.192Z,11.10
2023-01-08T21:20:59.605Z,11.10
2023-01-08T21:23:27.352Z,11.00
2023-01-08T21:25:57.809Z,11.00
2023-01-08T21:28:25.495Z,10.90
2023-01-08T21:30:53.001Z,10.90
2023-01-08T21:33:20.252Z,10.90
2023-01-08T21:35:47.918Z,10.90
2023-01-08T21:38:15.259Z,10.80
2023-01-08T21:40:42.327Z,10.80
2023-01-08T21:43:28.921Z,10.90
2023-01-08T21:45:58.084Z,10.90
2023-01-08T21:48:25.282Z,10.90
2023-01-08T21:50:52.655Z,10.90
2023-01-08T21:53:33.195Z,10.90
2023-01-08T21:56:04.938Z,10.80
2023-01-08T21:58:32.321Z,10.70
2023-01-08T22:00:59.495Z,10.60
2023-01-08T22:03:26.619Z,10.50
2023-01-08T22:05:57.696Z,10.40
2023-01-08T22:08:24.814Z,10.50
2023-01-08T22:10:52.058Z,10.50
2023-01-08T22:13:19.111Z,10.50
2023-01-08T22:15:46.079Z,10.50
2023-01-08T22:18:13.264Z,10.50
2023-01-08T22:20:40.517Z,10.50
2023-01-08T22:23:07.762Z,10.40
2023-01-08T22:25:34.913Z,10.40
2023-01-08T22:28:01.995Z,10.30
2023-01-08T22:30:29.157Z,10.20
2023-01-08T22:32:56.214Z,10.20
2023-01-08T22:35:23.431Z,10.10
2023-01-08T22:37:50.477Z,10.10
2023-01-08T22:40:17.599Z,10.10
2023-01-08T22:42:44.602Z,10.00
2023-01-08T22:45:13.668Z,9.90
2023-01-08T22:47:40.832Z,9.90
2023-01-08T22:50:08.131Z,9.70
2023-01-08T22:52:35.035Z,9.60
2023-01-08T22:55:02.879Z,9.50
2023-01-08T22:57:29.823Z,9.30
2023-01-08T22:59:56.833Z,9.30
2023-01-08T23:02:26.959Z,9.30
2023-01-08T23:04:54.380Z,9.30
2023-01-08T23:07:21.471Z,9.20
2023-01-08T23:09:48.638Z,9.30
2023-01-08T23:12:16.696Z,9.30
2023-01-08T23:14:43.695Z,9.40
2023-01-08T23:17:10.928Z,9.30
2023-01-08T23:19:38.387Z,9.30
2023-01-08T23:22:05.433Z,9.30
2023-01-08T23:24:33.005Z,9.30
2023-01-08T23:27:02.472Z,9.30
2023-01-08T23:29:31.898Z,9.20
2023-01-08T23:31:59.049Z,9.00
2023-01-08T23:34:32.266Z,8.90
2023-01-08T23:36:59.513Z,8.80
2023-01-08T23:39:28.487Z,8.80
2023-01-08T23:41:56.349Z,8.80
2023-01-08T23:44:23.715Z,8.70
2023-01-08T23:46:51.077Z,8.80
2023-01-08T23:49:18.537Z,8.70
2023-01-08T23:51:47.848Z,8.80
2023-01-08T23:54:15.078Z,8.90
2023-01-08T23:56:42.453Z,8.90
2023-01-08T23:59:09.797Z,8.80
